MSC Sinfonia — H8XH — position and weather

sailwx.info

Track history (hours):
 
Tides and Currents Weather Stations Pressure Air Temp Water Temp Dewpoint Dewpoint Depression Visibility Wind Speed Wind Dir Waves Ship Positions

MSC Sinfonia

Last reported at 2017-Sep-26 14:31 UTC. Time now 2017-Sep-26 14:54 UTC.
Position N 37°09' E 025°18'.

Length 251 m; draft 6.8 m.

Type: Passenger vessel. MMSI: 356715971.

Date/timePositionNaut miles runAvg speedWind from/ knotsBaromVisibWave heightAir tempDewpointWater temp
2017-Sep-26 14:31N 37°09' E 025°18'816.0
2017-Sep-26 14:00N 37°01' E 025°17'  
2017-Sep-23 23:22N 43°56' E 014°27'1219.7
2017-Sep-23 22:46N 44°02' E 014°13'519.8
2017-Sep-23 22:30N 44°04' E 014°06'1619.2
2017-Sep-23 21:42N 44°16' E 013°53'1419.3
2017-Sep-23 20:57N 44°29' E 013°43'919.0
2017-Sep-23 20:30N 44°36' E 013°36'918.8
2017-Sep-23 20:00N 44°43' E 013°28'  
2017-Sep-20 05:23N 36°33' E 023°30'718.0
2017-Sep-20 05:01N 36°37' E 023°38'918.2
2017-Sep-20 04:31N 36°41' E 023°48'917.9
2017-Sep-20 04:01N 36°46' E 023°57'918.7
2017-Sep-20 03:31N 36°52' E 024°06'1019.1
2017-Sep-20 03:00N 36°57' E 024°16'3118.7
2017-Sep-20 01:21N 37°14' E 024°48'718.9
2017-Sep-20 01:01N 37°18' E 024°55'918.7
2017-Sep-20 00:30N 37°24' E 025°04'917.7
2017-Sep-20 00:01N 37°27' E 025°14'4 8.2
2017-Sep-19 23:31N 37°28' E 025°19'0 0.0
2017-Sep-19 22:59N 37°28' E 025°19'0 0.0
2017-Sep-19 22:29N 37°28' E 025°19'0 0.0
2017-Sep-19 21:59N 37°28' E 025°19'0 0.0
2017-Sep-19 21:26N 37°28' E 025°19'0 0.0
2017-Sep-19 20:59N 37°28' E 025°19'0 0.0
2017-Sep-19 20:29N 37°28' E 025°19'0 0.0
2017-Sep-19 19:59N 37°28' E 025°19'0 0.0
2017-Sep-19 19:29N 37°28' E 025°19'0 0.0
2017-Sep-19 18:59N 37°28' E 025°19'0 0.0
2017-Sep-19 18:29N 37°28' E 025°19'0 0.0
2017-Sep-19 17:59N 37°28' E 025°19'0 0.0
2017-Sep-19 17:29N 37°28' E 025°19'0 0.0
2017-Sep-19 16:59N 37°28' E 025°19'0 0.1
2017-Sep-19 16:30N 37°28' E 025°19'1 2.8
2017-Sep-19 16:00N 37°28' E 025°17'612.1
2017-Sep-19 15:30N 37°25' E 025°10'816.1
2017-Sep-19 15:00N 37°18' E 025°13'816.8
2017-Sep-19 14:30N 37°10' E 025°18'815.9
2017-Sep-19 14:00N 37°02' E 025°17'58 4.2
2017-Sep-19 00:16N 36°21' E 024°26'415.5
2017-Sep-19 00:00N 36°21' E 024°21'916.8
2017-Sep-18 23:29N 36°21' E 024°10'1717.4
2017-Sep-18 22:31N 36°21' E 023°50'017.4
2017-Sep-18 22:30N 36°21' E 023°49'917.2
2017-Sep-18 22:00N 36°22' E 023°39'917.1
2017-Sep-18 21:30N 36°22' E 023°28'30817.3
2017-Sep-18 03:43N 40°00' E 018°51'1519.7
2017-Sep-18 02:57N 40°13' E 018°40'29510.6
2017-Sep-16 23:11N 43°57' E 014°22'319.7
2017-Sep-16 23:00N 43°58' E 014°17'1119.7
2017-Sep-16 22:27N 44°03' E 014°04'1120.2
2017-Sep-16 21:55N 44°12' E 013°55'1019.5
2017-Sep-16 21:25N 44°20' E 013°47'819.6
2017-Sep-16 20:59N 44°27' E 013°41'919.4
2017-Sep-16 20:30N 44°35' E 013°34'1019.3
2017-Sep-16 20:00N 44°43' E 013°27'1019.3
2017-Sep-16 19:30N 44°52' E 013°20'918.9
2017-Sep-16 19:00N 44°58' E 013°11'918.7
2017-Sep-16 18:30N 45°04' E 013°00'918.6
2017-Sep-16 18:00N 45°10' E 012°50'918.9
2017-Sep-16 17:30N 45°16' E 012°41'917.9
2017-Sep-16 17:00N 45°23' E 012°31'612.2
2017-Sep-16 16:30N 45°26' E 012°24'2 5.0
2017-Sep-16 16:00N 45°26' E 012°20'2 3.1
2017-Sep-16 15:29N 45°26' E 012°18'0 0.5
2017-Sep-16 14:59N 45°26' E 012°18'  
Track history (hours):
 
Tides and Currents Weather Stations Pressure Air Temp Water Temp Dewpoint Dewpoint Depression Visibility Wind Speed Wind Dir Waves Ship Positions

MSC Sinfonia

Last reported at 2017-Sep-26 14:31 UTC. Time now 2017-Sep-26 14:54 UTC.
Position N 37°09' E 025°18'.

Length 251 m; draft 6.8 m.

Type: Passenger vessel. MMSI: 356715971.

Date/timePositionNaut miles runAvg speedWind from/ knotsBaromVisibWave heightAir tempDewpointWater temp
2017-Sep-26 14:31N 37°09' E 025°18'816.0
2017-Sep-26 14:00N 37°01' E 025°17'  
2017-Sep-23 23:22N 43°56' E 014°27'1219.7
2017-Sep-23 22:46N 44°02' E 014°13'519.8
2017-Sep-23 22:30N 44°04' E 014°06'1619.2
2017-Sep-23 21:42N 44°16' E 013°53'1419.3
2017-Sep-23 20:57N 44°29' E 013°43'919.0
2017-Sep-23 20:30N 44°36' E 013°36'918.8
2017-Sep-23 20:00N 44°43' E 013°28'  
2017-Sep-20 05:23N 36°33' E 023°30'718.0
2017-Sep-20 05:01N 36°37' E 023°38'918.2
2017-Sep-20 04:31N 36°41' E 023°48'917.9
2017-Sep-20 04:01N 36°46' E 023°57'918.7
2017-Sep-20 03:31N 36°52' E 024°06'1019.1
2017-Sep-20 03:00N 36°57' E 024°16'3118.7
2017-Sep-20 01:21N 37°14' E 024°48'718.9
2017-Sep-20 01:01N 37°18' E 024°55'918.7
2017-Sep-20 00:30N 37°24' E 025°04'917.7
2017-Sep-20 00:01N 37°27' E 025°14'4 8.2
2017-Sep-19 23:31N 37°28' E 025°19'0 0.0
2017-Sep-19 22:59N 37°28' E 025°19'0 0.0
2017-Sep-19 22:29N 37°28' E 025°19'0 0.0
2017-Sep-19 21:59N 37°28' E 025°19'0 0.0
2017-Sep-19 21:26N 37°28' E 025°19'0 0.0
2017-Sep-19 20:59N 37°28' E 025°19'0 0.0
2017-Sep-19 20:29N 37°28' E 025°19'0 0.0
2017-Sep-19 19:59N 37°28' E 025°19'0 0.0
2017-Sep-19 19:29N 37°28' E 025°19'0 0.0
2017-Sep-19 18:59N 37°28' E 025°19'0 0.0
2017-Sep-19 18:29N 37°28' E 025°19'0 0.0
2017-Sep-19 17:59N 37°28' E 025°19'0 0.0
2017-Sep-19 17:29N 37°28' E 025°19'0 0.0
2017-Sep-19 16:59N 37°28' E 025°19'0 0.1
2017-Sep-19 16:30N 37°28' E 025°19'1 2.8
2017-Sep-19 16:00N 37°28' E 025°17'612.1
2017-Sep-19 15:30N 37°25' E 025°10'816.1
2017-Sep-19 15:00N 37°18' E 025°13'816.8
2017-Sep-19 14:30N 37°10' E 025°18'815.9
2017-Sep-19 14:00N 37°02' E 025°17'58 4.2
2017-Sep-19 00:16N 36°21' E 024°26'415.5
2017-Sep-19 00:00N 36°21' E 024°21'916.8
2017-Sep-18 23:29N 36°21' E 024°10'1717.4
2017-Sep-18 22:31N 36°21' E 023°50'017.4
2017-Sep-18 22:30N 36°21' E 023°49'917.2
2017-Sep-18 22:00N 36°22' E 023°39'917.1
2017-Sep-18 21:30N 36°22' E 023°28'30817.3
2017-Sep-18 03:43N 40°00' E 018°51'1519.7
2017-Sep-18 02:57N 40°13' E 018°40'29510.6
2017-Sep-16 23:11N 43°57' E 014°22'319.7
2017-Sep-16 23:00N 43°58' E 014°17'1119.7
2017-Sep-16 22:27N 44°03' E 014°04'1120.2
2017-Sep-16 21:55N 44°12' E 013°55'1019.5
2017-Sep-16 21:25N 44°20' E 013°47'819.6
2017-Sep-16 20:59N 44°27' E 013°41'919.4
2017-Sep-16 20:30N 44°35' E 013°34'1019.3
2017-Sep-16 20:00N 44°43' E 013°27'1019.3
2017-Sep-16 19:30N 44°52' E 013°20'918.9
2017-Sep-16 19:00N 44°58' E 013°11'918.7
2017-Sep-16 18:30N 45°04' E 013°00'918.6
2017-Sep-16 18:00N 45°10' E 012°50'918.9
2017-Sep-16 17:30N 45°16' E 012°41'917.9
2017-Sep-16 17:00N 45°23' E 012°31'612.2
2017-Sep-16 16:30N 45°26' E 012°24'2 5.0
2017-Sep-16 16:00N 45°26' E 012°20'2 3.1
2017-Sep-16 15:29N 45°26' E 012°18'0 0.5
2017-Sep-16 14:59N 45°26' E 012°18'  

Dump ship's entire track history